createdAt,value
2019-03-19T00:00:39.874Z,70.91
2019-03-19T00:01:39.882Z,69.56
2019-03-19T00:02:39.924Z,69.77
2019-03-19T00:03:39.855Z,70.01
2019-03-19T00:04:39.842Z,70.39
2019-03-19T00:05:39.811Z,69.56
2019-03-19T00:06:39.802Z,69.98
2019-03-19T00:07:39.816Z,70.39
2019-03-19T00:08:39.839Z,70.70
2019-03-19T00:09:39.787Z,70.50
2019-03-19T00:10:39.770Z,70.50
2019-03-19T00:11:39.756Z,70.91
2019-03-19T00:12:39.745Z,70.63
2019-03-19T00:13:39.745Z,70.21
2019-03-19T00:14:39.764Z,71.77
2019-03-19T00:15:39.719Z,71.15
2019-03-19T00:16:39.692Z,71.56
2019-03-19T00:17:39.695Z,71.73
2019-03-19T00:18:39.680Z,71.36
2019-03-19T00:19:39.697Z,70.42
2019-03-19T00:20:39.694Z,70.73
2019-03-19T00:21:39.643Z,70.32
2019-03-19T00:22:39.634Z,70.32
2019-03-19T00:23:39.672Z,71.46
2019-03-19T00:24:39.723Z,71.98
2019-03-19T00:25:39.598Z,71.88
2019-03-19T00:26:39.587Z,71.67
2019-03-19T00:27:39.588Z,71.36
2019-03-19T00:28:39.564Z,71.46
2019-03-19T00:29:39.574Z,71.04
2019-03-19T00:30:39.550Z,71.67
2019-03-19T00:31:39.533Z,72.22
2019-03-19T00:32:39.521Z,72.42
2019-03-19T00:33:39.521Z,72.74
2019-03-19T00:34:39.521Z,73.18
2019-03-19T00:35:39.490Z,73.18
2019-03-19T00:36:39.491Z,72.98
2019-03-19T00:37:39.470Z,72.56
2019-03-19T00:38:39.471Z,72.46
2019-03-19T00:39:39.479Z,72.05
2019-03-19T00:40:39.441Z,71.97
2019-03-19T00:41:39.464Z,72.18
2019-03-19T00:42:39.431Z,72.28
2019-03-19T00:43:39.406Z,72.70
2019-03-19T00:44:39.413Z,72.70
2019-03-19T00:45:39.381Z,72.84
2019-03-19T00:46:39.682Z,72.80
2019-03-19T00:47:39.375Z,72.70
2019-03-19T00:48:39.355Z,73.36
2019-03-19T00:49:39.394Z,73.49
2019-03-19T00:50:39.328Z,73.80
2019-03-19T00:51:39.322Z,73.70
2019-03-19T00:52:39.306Z,74.22
2019-03-19T00:53:39.299Z,74.74
2019-03-19T00:54:39.331Z,75.57
2019-03-19T00:55:41.044Z,75.46
2019-03-19T00:56:39.265Z,75.29
2019-03-19T00:57:39.314Z,75.36
2019-03-19T00:58:39.243Z,75.71
2019-03-19T00:59:39.266Z,76.23
2019-03-19T01:00:39.230Z,76.43
2019-03-19T01:01:39.233Z,75.60
2019-03-19T01:02:39.215Z,75.50
2019-03-19T01:03:39.193Z,75.09
2019-03-19T01:04:39.210Z,75.60
2019-03-19T01:05:39.167Z,75.60
2019-03-19T01:06:39.168Z,75.85
2019-03-19T01:07:39.145Z,76.57
2019-03-19T01:08:39.138Z,76.99
2019-03-19T01:09:39.145Z,76.89
2019-03-19T01:10:39.113Z,76.99
2019-03-19T01:11:39.110Z,76.89
2019-03-19T01:12:39.098Z,76.89
2019-03-19T01:13:39.085Z,76.99
2019-03-19T01:14:39.087Z,76.99
2019-03-19T01:15:39.067Z,76.78
2019-03-19T01:16:39.047Z,76.78
2019-03-19T01:17:39.059Z,77.30
2019-03-19T01:18:39.035Z,77.20
2019-03-19T01:19:39.041Z,77.34
2019-03-19T01:20:39.009Z,76.99
2019-03-19T01:21:39.000Z,76.47
2019-03-19T01:22:38.981Z,76.57
2019-03-19T01:23:38.985Z,76.89
2019-03-19T01:24:38.982Z,77.40
2019-03-19T01:25:39.606Z,77.23
2019-03-19T01:26:38.938Z,77.40
2019-03-19T01:27:38.928Z,76.78
2019-03-19T01:28:38.925Z,76.99
2019-03-19T01:29:38.935Z,77.09
2019-03-19T01:30:38.895Z,77.34
2019-03-19T01:31:38.886Z,77.75
2019-03-19T01:32:38.874Z,78.06
2019-03-19T01:33:38.869Z,79.00
2019-03-19T01:34:38.873Z,79.10
2019-03-19T01:35:38.854Z,79.31
2019-03-19T01:36:38.831Z,79.24
2019-03-19T01:37:38.821Z,79.55
2019-03-19T01:38:38.808Z,80.18
2019-03-19T01:39:38.817Z,80.39
2019-03-19T01:40:38.787Z,80.70
2019-03-19T01:41:38.791Z,80.49
2019-03-19T01:42:38.764Z,80.49
2019-03-19T01:43:38.757Z,80.39
2019-03-19T01:44:38.774Z,80.60
2019-03-19T01:45:38.732Z,80.70
2019-03-19T01:46:38.727Z,80.04
2019-03-19T01:47:38.745Z,79.83
2019-03-19T01:48:38.698Z,79.35
2019-03-19T01:49:38.709Z,79.55
2019-03-19T01:50:38.679Z,80.08
2019-03-19T01:51:38.666Z,80.18
2019-03-19T01:52:38.659Z,79.97
2019-03-19T01:53:38.670Z,80.18
2019-03-19T01:54:38.683Z,79.66
2019-03-19T01:55:38.633Z,79.55
2019-03-19T01:56:38.621Z,79.14
2019-03-19T01:57:38.603Z,78.93
2019-03-19T01:58:38.597Z,79.24
2019-03-19T01:59:38.590Z,78.31
2019-03-19T02:00:38.590Z,78.10
2019-03-19T02:01:38.557Z,77.55
2019-03-19T02:02:38.548Z,77.27
2019-03-19T02:03:38.537Z,77.27
2019-03-19T02:04:38.525Z,76.92
2019-03-19T02:05:38.552Z,76.82
2019-03-19T02:06:38.506Z,76.82
2019-03-19T02:07:38.496Z,77.06
2019-03-19T02:08:38.482Z,77.03
2019-03-19T02:09:38.471Z,76.82
2019-03-19T02:10:38.485Z,76.82
2019-03-19T02:11:38.680Z,77.03
2019-03-19T02:12:38.440Z,76.95
2019-03-19T02:13:38.429Z,76.82
2019-03-19T02:14:38.417Z,76.72
2019-03-19T02:15:38.429Z,76.72
2019-03-19T02:16:38.398Z,76.92
2019-03-19T02:17:38.403Z,76.92
2019-03-19T02:18:38.374Z,76.85
2019-03-19T02:19:38.365Z,77.06
2019-03-19T02:20:38.377Z,76.85
2019-03-19T02:21:38.341Z,76.95
2019-03-19T02:22:38.332Z,77.06
2019-03-19T02:23:38.340Z,77.06
2019-03-19T02:24:38.308Z,76.99
2019-03-19T02:25:38.321Z,77.61
2019-03-19T02:26:38.286Z,77.83
2019-03-19T02:27:38.278Z,78.38
2019-03-19T02:28:38.264Z,79.07
2019-03-19T02:29:38.276Z,79.21
2019-03-19T02:30:38.270Z,79.21
2019-03-19T02:31:38.234Z,79.28
2019-03-19T02:32:38.227Z,79.11
2019-03-19T02:33:38.250Z,79.11
2019-03-19T02:34:38.207Z,79.21
2019-03-19T02:35:38.252Z,78.59
2019-03-19T02:36:38.186Z,78.45
2019-03-19T02:37:38.181Z,78.55
2019-03-19T02:38:38.157Z,78.24
2019-03-19T02:39:38.159Z,78.17
2019-03-19T02:40:38.169Z,78.38
2019-03-19T02:41:38.125Z,79.42
2019-03-19T02:42:38.113Z,79.46
2019-03-19T02:43:38.126Z,79.98
2019-03-19T02:44:38.092Z,80.08
2019-03-19T02:45:38.110Z,80.12
2019-03-19T02:46:38.070Z,80.85
2019-03-19T02:47:38.060Z,80.95
2019-03-19T02:48:38.052Z,81.82
2019-03-19T02:49:38.064Z,81.37
2019-03-19T02:50:38.071Z,80.54
2019-03-19T02:51:38.025Z,80.74
2019-03-19T02:52:38.007Z,80.08
2019-03-19T02:53:37.996Z,80.08
2019-03-19T02:54:37.985Z,80.19
2019-03-19T02:55:38.010Z,80.02
2019-03-19T02:56:37.967Z,80.19
2019-03-19T02:57:37.960Z,80.19
2019-03-19T02:58:37.944Z,79.87
2019-03-19T02:59:37.949Z,79.70
2019-03-19T03:00:37.943Z,80.22
2019-03-19T03:01:37.910Z,79.56
2019-03-19T03:02:37.904Z,79.49
2019-03-19T03:03:37.895Z,79.56
2019-03-19T03:04:37.883Z,79.04
2019-03-19T03:05:37.888Z,79.70
2019-03-19T03:06:37.863Z,79.70
2019-03-19T03:07:37.850Z,79.91
2019-03-19T03:08:37.844Z,79.80
2019-03-19T03:09:37.865Z,79.77
2019-03-19T03:10:37.837Z,79.60
2019-03-19T03:11:37.809Z,79.14
2019-03-19T03:12:37.797Z,79.14
2019-03-19T03:13:37.791Z,79.25
2019-03-19T03:14:37.776Z,79.25
2019-03-19T03:15:37.791Z,79.14
2019-03-19T03:16:37.771Z,79.14
2019-03-19T03:17:37.751Z,79.14
2019-03-19T03:18:37.735Z,79.14
2019-03-19T03:19:37.734Z,78.83
2019-03-19T03:20:37.732Z,78.94
2019-03-19T03:21:37.706Z,79.46
2019-03-19T03:22:37.691Z,79.56
2019-03-19T03:23:37.715Z,79.35
2019-03-19T03:24:37.670Z,78.52
2019-03-19T03:25:37.687Z,78.63
2019-03-19T03:26:47.629Z,78.38
2019-03-19T03:27:38.647Z,78.52
2019-03-19T03:28:37.629Z,78.63
2019-03-19T03:29:37.618Z,78.42
2019-03-19T03:30:37.629Z,78.31
2019-03-19T03:31:37.600Z,78.42
2019-03-19T03:32:37.598Z,78.52
2019-03-19T03:33:37.597Z,79.56
2019-03-19T03:34:37.564Z,79.49
2019-03-19T03:35:37.572Z,79.39
2019-03-19T03:36:37.545Z,79.39
2019-03-19T03:37:37.533Z,79.04
2019-03-19T03:38:37.518Z,79.49
2019-03-19T03:39:37.520Z,79.18
2019-03-19T03:40:37.519Z,79.18
2019-03-19T03:41:37.500Z,79.28
2019-03-19T03:42:37.481Z,79.08
2019-03-19T03:43:37.474Z,79.18
2019-03-19T03:44:37.457Z,79.39
2019-03-19T03:45:37.489Z,80.02
2019-03-19T03:46:37.437Z,79.84
2019-03-19T03:47:37.430Z,80.26
2019-03-19T03:48:37.415Z,80.71
2019-03-19T03:49:37.411Z,82.31
2019-03-19T03:50:37.415Z,82.10
2019-03-19T03:51:37.390Z,82.31
2019-03-19T03:52:37.372Z,82.73
2019-03-19T03:53:37.362Z,83.08
2019-03-19T03:54:37.403Z,83.57
2019-03-19T03:55:37.377Z,83.78
2019-03-19T03:56:37.334Z,83.67
2019-03-19T03:57:37.328Z,83.47
2019-03-19T03:58:37.306Z,83.67
2019-03-19T03:59:37.299Z,83.42
2019-03-19T04:00:37.309Z,83.22
2019-03-19T04:01:37.280Z,82.80
2019-03-19T04:02:37.267Z,81.96
2019-03-19T04:03:37.262Z,81.96
2019-03-19T04:04:37.245Z,82.63
2019-03-19T04:05:37.256Z,82.84
2019-03-19T04:06:37.240Z,82.48
2019-03-19T04:07:37.214Z,82.80
2019-03-19T04:08:37.206Z,81.96
2019-03-19T04:09:37.194Z,82.53
2019-03-19T04:10:37.208Z,83.08
2019-03-19T04:11:37.173Z,83.18
2019-03-19T04:12:37.165Z,83.40
2019-03-19T04:13:37.150Z,83.61
2019-03-19T04:14:37.137Z,84.06
2019-03-19T04:15:37.171Z,84.02
2019-03-19T04:16:37.132Z,84.79
2019-03-19T04:17:37.110Z,84.79
2019-03-19T04:18:37.103Z,85.21
2019-03-19T04:19:37.103Z,85.42
2019-03-19T04:20:37.081Z,85.73
2019-03-19T04:21:37.090Z,86.29
2019-03-19T04:22:37.061Z,86.25
2019-03-19T04:23:37.047Z,86.92
2019-03-19T04:24:37.039Z,86.88
2019-03-19T04:25:37.024Z,86.77
2019-03-19T04:26:37.032Z,86.15
2019-03-19T04:27:40.106Z,86.40
2019-03-19T04:28:37.020Z,86.40
2019-03-19T04:29:36.983Z,86.05
2019-03-19T04:30:36.974Z,85.73
2019-03-19T04:31:36.983Z,85.59
2019-03-19T04:32:36.948Z,84.75
2019-03-19T04:33:36.940Z,84.65
2019-03-19T04:34:36.942Z,85.00
2019-03-19T04:35:36.921Z,84.79
2019-03-19T04:36:36.925Z,85.21
2019-03-19T04:37:36.898Z,85.88
2019-03-19T04:38:36.886Z,86.25
2019-03-19T04:39:36.876Z,86.46
2019-03-19T04:40:36.878Z,87.02
2019-03-19T04:41:36.874Z,87.09
2019-03-19T04:42:36.858Z,87.23
2019-03-19T04:43:36.844Z,86.25
2019-03-19T04:44:36.903Z,86.15
2019-03-19T04:45:36.813Z,86.36
2019-03-19T04:46:36.825Z,86.00
2019-03-19T04:47:36.794Z,85.80
2019-03-19T04:48:36.782Z,85.38
2019-03-19T04:49:36.773Z,85.17
2019-03-19T04:50:36.769Z,86.00
2019-03-19T04:51:36.770Z,85.69
2019-03-19T04:52:36.742Z,85.69
2019-03-19T04:53:36.738Z,85.80
2019-03-19T04:54:36.718Z,86.00
2019-03-19T04:55:36.708Z,85.69
2019-03-19T04:56:36.716Z,86.21
2019-03-19T04:57:36.687Z,86.00
2019-03-19T04:58:36.696Z,85.69
2019-03-19T04:59:36.669Z,85.97
2019-03-19T05:00:36.655Z,85.76
2019-03-19T05:01:36.669Z,85.24
2019-03-19T05:02:36.639Z,84.99
2019-03-19T05:03:36.625Z,84.78
2019-03-19T05:04:36.630Z,84.92
2019-03-19T05:05:36.605Z,84.72
2019-03-19T05:06:36.626Z,84.88
2019-03-19T05:07:36.584Z,84.88
2019-03-19T05:08:36.574Z,84.26
2019-03-19T05:09:36.563Z,84.16
2019-03-19T05:10:36.549Z,83.95
2019-03-19T05:11:36.561Z,83.63
2019-03-19T05:12:36.539Z,83.63
2019-03-19T05:13:36.525Z,83.22
2019-03-19T05:14:36.511Z,83.42
2019-03-19T05:15:36.497Z,83.25
2019-03-19T05:16:36.521Z,83.78
2019-03-19T05:17:36.484Z,85.03
2019-03-19T05:18:36.469Z,85.49
2019-03-19T05:19:36.458Z,85.42
2019-03-19T05:20:36.455Z,85.83
2019-03-19T05:21:36.453Z,85.59
2019-03-19T05:22:36.423Z,85.69
2019-03-19T05:23:36.416Z,85.55
2019-03-19T05:24:36.406Z,86.18
2019-03-19T05:25:36.397Z,86.11
2019-03-19T05:26:36.408Z,85.55
2019-03-19T05:27:37.632Z,85.03
2019-03-19T05:28:36.360Z,84.72
2019-03-19T05:29:36.351Z,85.03
2019-03-19T05:30:36.371Z,84.72
2019-03-19T05:31:36.353Z,83.98
2019-03-19T05:32:36.399Z,83.57
2019-03-19T05:33:36.312Z,83.78
2019-03-19T05:34:36.299Z,83.67
2019-03-19T05:35:36.288Z,83.04
2019-03-19T05:36:36.294Z,83.81
2019-03-19T05:37:36.267Z,84.65
2019-03-19T05:38:36.263Z,85.03
2019-03-19T05:39:36.258Z,84.92
2019-03-19T05:40:36.238Z,84.72
2019-03-19T05:41:36.269Z,84.40
2019-03-19T05:42:36.216Z,85.03
2019-03-19T05:43:36.206Z,85.13
2019-03-19T05:44:36.193Z,84.40
2019-03-19T05:45:36.193Z,83.84
2019-03-19T05:46:36.204Z,83.53
2019-03-19T05:47:38.162Z,83.22
2019-03-19T05:48:36.151Z,83.32
2019-03-19T05:49:36.141Z,83.42
2019-03-19T05:50:36.130Z,83.36
2019-03-19T05:51:36.141Z,83.04
2019-03-19T05:52:36.121Z,83.01
2019-03-19T05:53:36.097Z,82.90
2019-03-19T05:54:36.149Z,83.15
2019-03-19T05:55:36.082Z,84.23
2019-03-19T05:56:36.086Z,84.48
2019-03-19T05:57:36.057Z,85.11
2019-03-19T05:58:36.047Z,85.14
2019-03-19T05:59:36.037Z,86.08
2019-03-19T06:00:36.038Z,85.98
2019-03-19T06:01:36.079Z,86.82
2019-03-19T06:02:36.006Z,87.34
2019-03-19T06:03:35.992Z,87.13
2019-03-19T06:04:36.027Z,87.40
2019-03-19T06:05:35.972Z,87.40
2019-03-19T06:06:35.964Z,86.94
2019-03-19T06:07:35.980Z,87.05
2019-03-19T06:08:35.941Z,86.94
2019-03-19T06:09:35.979Z,86.94
2019-03-19T06:10:35.919Z,86.53
2019-03-19T06:11:35.918Z,86.32
2019-03-19T06:12:35.921Z,86.38
2019-03-19T06:13:35.885Z,86.11
2019-03-19T06:14:35.908Z,85.97
2019-03-19T06:15:35.870Z,86.07
2019-03-19T06:16:35.856Z,86.07
2019-03-19T06:17:35.929Z,85.86
2019-03-19T06:18:35.841Z,85.55
2019-03-19T06:19:35.823Z,86.18
2019-03-19T06:20:35.812Z,85.97
2019-03-19T06:21:35.806Z,85.86
2019-03-19T06:22:35.814Z,85.34
2019-03-19T06:23:35.786Z,85.03
2019-03-19T06:24:35.791Z,85.76
2019-03-19T06:25:35.761Z,85.65
2019-03-19T06:26:35.770Z,85.34
2019-03-19T06:27:35.762Z,85.76
2019-03-19T06:28:35.798Z,85.30
2019-03-19T06:29:35.723Z,84.99
2019-03-19T06:30:35.707Z,84.78
2019-03-19T06:31:35.694Z,84.57
2019-03-19T06:32:35.704Z,84.67
2019-03-19T06:33:35.685Z,85.10
2019-03-19T06:34:35.666Z,85.10
2019-03-19T06:35:35.653Z,85.20
2019-03-19T06:36:35.643Z,85.30
2019-03-19T06:37:35.651Z,85.93
2019-03-19T06:38:35.633Z,85.82
2019-03-19T06:39:35.629Z,86.24
2019-03-19T06:40:35.599Z,86.20
2019-03-19T06:41:35.589Z,84.53
2019-03-19T06:42:35.601Z,84.74
2019-03-19T06:43:35.565Z,84.74
2019-03-19T06:44:35.555Z,84.74
2019-03-19T06:45:35.553Z,84.84
2019-03-19T06:46:35.533Z,85.78
2019-03-19T06:47:35.543Z,85.64
2019-03-19T06:48:35.513Z,85.12
2019-03-19T06:49:35.502Z,84.91
2019-03-19T06:50:44.613Z,84.50
2019-03-19T06:51:36.486Z,83.52
2019-03-19T06:52:35.495Z,83.73
2019-03-19T06:53:35.458Z,83.66
2019-03-19T06:54:35.450Z,83.76
2019-03-19T06:55:35.436Z,83.20
2019-03-19T06:56:35.430Z,83.31
2019-03-19T06:57:39.411Z,83.48
2019-03-19T06:58:35.432Z,83.27
2019-03-19T06:59:35.397Z,83.27
2019-03-19T07:00:35.391Z,83.17
2019-03-19T07:01:35.387Z,82.75
2019-03-19T07:02:35.382Z,82.13
2019-03-19T07:03:35.356Z,81.98
2019-03-19T07:04:35.361Z,82.51
2019-03-19T07:05:35.329Z,82.09
2019-03-19T07:06:35.318Z,81.46
2019-03-19T07:07:35.328Z,81.57
2019-03-19T07:08:35.298Z,80.49
2019-03-19T07:09:35.296Z,81.22
2019-03-19T07:10:35.280Z,80.60
2019-03-19T07:11:35.267Z,80.91
2019-03-19T07:12:35.278Z,81.01
2019-03-19T07:13:35.243Z,80.77
2019-03-19T07:14:35.233Z,80.91
2019-03-19T07:15:35.227Z,80.66
2019-03-19T07:16:35.215Z,79.90
2019-03-19T07:17:35.221Z,80.11
2019-03-19T07:18:35.202Z,79.27
2019-03-19T07:19:35.177Z,79.24
2019-03-19T07:20:35.168Z,78.68
2019-03-19T07:21:35.158Z,78.16
2019-03-19T07:22:35.185Z,78.06
2019-03-19T07:23:35.136Z,77.54
2019-03-19T07:24:35.144Z,77.82
2019-03-19T07:25:35.119Z,76.78
2019-03-19T07:26:35.103Z,76.26
2019-03-19T07:27:35.109Z,75.43
2019-03-19T07:28:35.104Z,75.64
2019-03-19T07:29:35.071Z,74.88
2019-03-19T07:30:35.061Z,75.19
2019-03-19T07:31:35.051Z,75.40
2019-03-19T07:32:35.065Z,74.81
2019-03-19T07:33:35.049Z,73.77
2019-03-19T07:34:35.016Z,73.88
2019-03-19T07:35:35.014Z,73.22
2019-03-19T07:36:35.002Z,73.81
2019-03-19T07:37:34.993Z,72.98
2019-03-19T07:38:35.039Z,73.05
2019-03-19T07:39:34.966Z,72.12
2019-03-19T07:40:34.951Z,70.77
2019-03-19T07:41:34.952Z,70.98
2019-03-19T07:42:34.952Z,70.26
2019-03-19T07:43:34.943Z,70.70
2019-03-19T07:44:34.931Z,71.08
2019-03-19T07:45:34.924Z,71.57
2019-03-19T07:46:34.903Z,70.95
2019-03-19T07:47:34.884Z,70.50
2019-03-19T07:48:34.887Z,70.71
2019-03-19T07:49:34.860Z,69.78
2019-03-19T07:50:34.852Z,69.23
2019-03-19T07:51:34.848Z,68.27
2019-03-19T07:52:34.832Z,68.37
2019-03-19T07:53:34.833Z,68.13
2019-03-19T07:54:34.828Z,67.58
2019-03-19T07:55:34.792Z,67.21
2019-03-19T07:56:34.787Z,67.38
2019-03-19T07:57:34.774Z,67.38
2019-03-19T07:58:44.832Z,65.62
2019-03-19T07:59:35.752Z,65.11
2019-03-19T08:00:34.744Z,65.73
2019-03-19T08:01:34.733Z,65.08
2019-03-19T08:02:34.717Z,64.46
2019-03-19T08:03:34.733Z,64.87
2019-03-19T08:04:34.705Z,64.43
2019-03-19T08:05:34.687Z,63.99
2019-03-19T08:06:34.684Z,63.57
2019-03-19T08:07:34.663Z,63.99
2019-03-19T08:08:34.673Z,64.53
2019-03-19T08:09:34.725Z,64.53
2019-03-19T08:10:34.631Z,65.12
2019-03-19T08:11:34.622Z,64.17
2019-03-19T08:12:34.627Z,64.50
2019-03-19T08:13:34.621Z,65.46
2019-03-19T08:14:34.596Z,65.64
2019-03-19T08:15:34.584Z,65.22
2019-03-19T08:16:34.567Z,64.81
2019-03-19T08:17:34.564Z,64.19
2019-03-19T08:18:36.195Z,63.10
2019-03-19T08:19:34.537Z,61.71
2019-03-19T08:20:34.525Z,61.71
2019-03-19T08:21:34.536Z,60.37
2019-03-19T08:22:34.507Z,60.45
2019-03-19T08:23:34.515Z,59.55
2019-03-19T08:24:34.502Z,59.52
2019-03-19T08:25:34.482Z,58.75
2019-03-19T08:26:34.466Z,58.49
2019-03-19T08:27:34.455Z,56.59
2019-03-19T08:28:34.485Z,56.05
2019-03-19T08:29:34.766Z,55.10
2019-03-19T08:30:34.424Z,54.57
2019-03-19T08:31:34.415Z,52.72
2019-03-19T08:32:34.407Z,53.28
2019-03-19T08:33:34.423Z,52.14
2019-03-19T08:34:36.256Z,51.68
2019-03-19T08:35:34.381Z,50.56
2019-03-19T08:36:34.395Z,50.35
2019-03-19T08:37:34.351Z,51.70
2019-03-19T08:38:34.363Z,52.22
2019-03-19T08:39:36.498Z,52.19
2019-03-19T08:40:34.322Z,51.02
2019-03-19T08:41:34.320Z,50.38
2019-03-19T08:42:34.306Z,48.63
2019-03-19T08:43:34.310Z,49.44
2019-03-19T08:44:34.280Z,48.63
2019-03-19T08:45:34.271Z,48.58
2019-03-19T08:46:34.259Z,48.41
2019-03-19T08:47:34.250Z,45.87
2019-03-19T08:48:34.262Z,46.70
2019-03-19T08:49:34.240Z,47.44
2019-03-19T08:50:34.215Z,48.31
2019-03-19T08:51:34.207Z,47.22
2019-03-19T08:52:34.248Z,45.51
2019-03-19T08:53:34.182Z,42.84
2019-03-19T08:54:34.194Z,42.29
2019-03-19T08:55:34.162Z,41.78
2019-03-19T08:56:34.151Z,41.18
2019-03-19T08:57:34.149Z,41.16
2019-03-19T08:58:34.139Z,40.15
2019-03-19T08:59:34.142Z,40.13
2019-03-19T09:00:34.108Z,40.11
2019-03-19T09:01:34.094Z,39.45
2019-03-19T09:02:34.092Z,37.60
2019-03-19T09:03:34.071Z,37.45
2019-03-19T09:04:34.085Z,35.88
2019-03-19T09:05:34.048Z,35.93
2019-03-19T09:06:34.050Z,34.89
2019-03-19T09:07:34.036Z,34.17
2019-03-19T09:08:34.044Z,33.46
2019-03-19T09:09:34.031Z,33.04
2019-03-19T09:10:34.009Z,33.11
2019-03-19T09:11:33.985Z,31.61
2019-03-19T09:12:33.990Z,31.41
2019-03-19T09:13:33.961Z,31.81
2019-03-19T09:14:33.970Z,32.61
2019-03-19T09:15:33.939Z,31.79
2019-03-19T09:16:33.929Z,31.78
2019-03-19T09:17:33.916Z,31.05
2019-03-19T09:18:33.928Z,31.73
2019-03-19T09:19:33.918Z,30.62
2019-03-19T09:20:33.894Z,31.13
2019-03-19T09:21:33.874Z,30.14
2019-03-19T09:22:33.863Z,31.04
2019-03-19T09:23:33.852Z,30.02
2019-03-19T09:24:33.862Z,31.10
2019-03-19T09:25:33.829Z,31.29
2019-03-19T09:26:33.839Z,29.60
2019-03-19T09:27:33.813Z,29.22
2019-03-19T09:28:33.799Z,30.61
2019-03-19T09:29:33.811Z,30.32
2019-03-19T09:30:33.779Z,30.52
2019-03-19T09:31:33.766Z,30.12
2019-03-19T09:32:33.766Z,29.75
2019-03-19T09:33:33.745Z,30.51
2019-03-19T09:34:33.765Z,31.51
2019-03-19T09:35:33.724Z,31.29
2019-03-19T09:36:33.721Z,30.65
2019-03-19T09:37:33.702Z,29.63
2019-03-19T09:38:33.706Z,29.51
2019-03-19T09:39:33.706Z,29.72
2019-03-19T09:40:33.671Z,29.80
2019-03-19T09:41:33.659Z,29.38
2019-03-19T09:42:33.654Z,28.16
2019-03-19T09:43:33.640Z,27.45
2019-03-19T09:44:33.658Z,26.75
2019-03-19T09:45:33.619Z,27.69
2019-03-19T09:46:33.606Z,28.54
2019-03-19T09:47:33.594Z,28.55
2019-03-19T09:48:33.593Z,29.05
2019-03-19T09:49:33.595Z,29.65
2019-03-19T09:50:33.581Z,29.75
2019-03-19T09:51:33.555Z,29.33
2019-03-19T09:52:33.542Z,28.69
2019-03-19T09:53:33.533Z,27.26
2019-03-19T09:54:33.540Z,25.16
2019-03-19T09:55:33.512Z,24.96
2019-03-19T09:56:33.549Z,24.27
2019-03-19T09:57:33.490Z,24.10
2019-03-19T09:58:33.480Z,23.83
2019-03-19T09:59:33.489Z,25.13
2019-03-19T10:00:33.466Z,24.32
2019-03-19T10:01:33.448Z,25.81
2019-03-19T10:02:33.454Z,24.69
2019-03-19T10:03:33.427Z,24.62
2019-03-19T10:04:33.435Z,25.74
2019-03-19T10:05:33.406Z,26.96
2019-03-19T10:06:33.401Z,27.73
2019-03-19T10:07:33.384Z,26.62
2019-03-19T10:08:33.375Z,26.10
2019-03-19T10:09:33.391Z,26.18
2019-03-19T10:10:33.437Z,25.76
2019-03-19T10:11:33.342Z,25.45
2019-03-19T10:12:33.337Z,24.94
2019-03-19T10:13:33.377Z,24.91
2019-03-19T10:14:33.332Z,24.31
2019-03-19T10:15:33.304Z,23.32
2019-03-19T10:16:33.342Z,24.02
2019-03-19T10:17:33.289Z,24.01
2019-03-19T10:18:33.274Z,23.30
2019-03-19T10:19:33.333Z,23.12
2019-03-19T10:20:33.250Z,24.02
2019-03-19T10:21:33.247Z,23.94
2019-03-19T10:22:33.236Z,24.73
2019-03-19T10:23:33.272Z,24.72
2019-03-19T10:24:33.227Z,23.12
2019-03-19T10:25:33.201Z,23.50
2019-03-19T10:26:33.197Z,23.69
2019-03-19T10:27:33.189Z,23.18
2019-03-19T10:28:33.170Z,23.46
2019-03-19T10:29:38.131Z,22.38
2019-03-19T10:30:34.151Z,23.36
2019-03-19T10:31:33.138Z,23.15
2019-03-19T10:32:33.126Z,22.75
2019-03-19T10:33:33.117Z,23.26
2019-03-19T10:34:33.165Z,22.78
2019-03-19T10:35:33.095Z,22.80
2019-03-19T10:36:33.084Z,22.89
2019-03-19T10:37:33.074Z,23.58
2019-03-19T10:38:33.065Z,23.67
2019-03-19T10:39:33.095Z,23.28
2019-03-19T10:40:33.052Z,21.63
2019-03-19T10:41:33.031Z,23.43
2019-03-19T10:42:33.025Z,23.03
2019-03-19T10:43:33.010Z,23.57
2019-03-19T10:44:33.001Z,24.57
2019-03-19T10:45:33.012Z,24.73
2019-03-19T10:46:33.003Z,23.02
2019-03-19T10:47:32.970Z,23.30
2019-03-19T10:48:32.961Z,22.59
2019-03-19T10:49:32.955Z,22.78
2019-03-19T10:50:32.967Z,22.96
2019-03-19T10:51:35.103Z,23.93
2019-03-19T10:52:32.918Z,22.45
2019-03-19T10:53:32.926Z,21.66
2019-03-19T10:54:32.899Z,22.40
2019-03-19T10:55:32.905Z,22.84
2019-03-19T10:56:32.877Z,23.93
2019-03-19T10:57:32.873Z,23.90
2019-03-19T10:58:32.856Z,23.28
2019-03-19T10:59:32.858Z,23.46
2019-03-19T11:00:32.860Z,22.55
2019-03-19T11:01:32.915Z,22.45
2019-03-19T11:02:32.816Z,23.24
2019-03-19T11:03:32.806Z,22.25
2019-03-19T11:04:32.808Z,21.66
2019-03-19T11:05:32.804Z,21.36
2019-03-19T11:06:32.775Z,21.55
2019-03-19T11:07:32.792Z,21.58
2019-03-19T11:08:32.755Z,21.47
2019-03-19T11:09:32.747Z,21.27
2019-03-19T11:10:32.753Z,21.38
2019-03-19T11:11:32.727Z,21.27
2019-03-19T11:12:32.724Z,21.56
2019-03-19T11:13:32.704Z,22.25
2019-03-19T11:14:32.694Z,21.96
2019-03-19T11:15:32.763Z,22.77
2019-03-19T11:16:32.673Z,22.64
2019-03-19T11:17:32.664Z,22.41
2019-03-19T11:18:32.661Z,22.20
2019-03-19T11:19:32.646Z,21.32
2019-03-19T11:20:32.654Z,21.22
2019-03-19T11:21:32.624Z,20.81
2019-03-19T11:22:33.606Z,21.31
2019-03-19T11:23:32.602Z,21.39
2019-03-19T11:24:32.605Z,20.50
2019-03-19T11:25:32.610Z,20.89
2019-03-19T11:26:32.581Z,21.00
2019-03-19T11:27:32.564Z,21.03
2019-03-19T11:28:32.557Z,21.92
2019-03-19T11:29:32.546Z,21.81
2019-03-19T11:30:32.561Z,21.51
2019-03-19T11:31:32.524Z,21.03
2019-03-19T11:32:32.511Z,21.12
2019-03-19T11:33:32.503Z,21.82
2019-03-19T11:34:32.502Z,20.64
2019-03-19T11:35:32.501Z,21.83
2019-03-19T11:36:32.489Z,22.52
2019-03-19T11:37:32.466Z,21.44
2019-03-19T11:38:32.458Z,20.94
2019-03-19T11:39:32.445Z,22.05
2019-03-19T11:40:32.477Z,22.06
2019-03-19T11:41:32.422Z,22.06
2019-03-19T11:42:32.411Z,22.94
2019-03-19T11:43:32.419Z,22.44
2019-03-19T11:44:32.392Z,22.52
2019-03-19T11:45:32.404Z,22.13
2019-03-19T11:46:32.370Z,21.93
2019-03-19T11:47:32.370Z,21.24
2019-03-19T11:48:32.352Z,21.15
2019-03-19T11:49:32.340Z,21.44
2019-03-19T11:50:33.524Z,22.24
2019-03-19T11:51:32.327Z,21.35
2019-03-19T11:52:32.322Z,21.14
2019-03-19T11:53:32.301Z,20.75
2019-03-19T11:54:32.289Z,22.42
2019-03-19T11:55:32.329Z,21.64
2019-03-19T11:56:32.269Z,22.23
2019-03-19T11:57:32.262Z,21.14
2019-03-19T11:58:32.271Z,21.64
2019-03-19T11:59:32.239Z,21.14
2019-03-19T12:00:32.230Z,21.44
2019-03-19T12:01:32.238Z,21.73
2019-03-19T12:02:32.228Z,21.25
2019-03-19T12:03:32.201Z,21.74
2019-03-19T12:04:32.193Z,21.05
2019-03-19T12:05:32.195Z,21.35
2019-03-19T12:06:32.185Z,20.00
2019-03-19T12:07:32.158Z,21.33
2019-03-19T12:08:32.147Z,21.32
2019-03-19T12:09:32.135Z,21.12
2019-03-19T12:10:32.126Z,21.41
2019-03-19T12:11:32.157Z,21.71
2019-03-19T12:12:32.105Z,22.09
2019-03-19T12:13:32.095Z,20.81
2019-03-19T12:14:32.092Z,21.91
2019-03-19T12:15:32.074Z,21.82
2019-03-19T12:16:32.089Z,21.82
2019-03-19T12:17:32.063Z,22.41
2019-03-19T12:18:32.050Z,20.78
2019-03-19T12:19:32.036Z,21.77
2019-03-19T12:20:32.023Z,21.66
2019-03-19T12:21:32.031Z,21.56
2019-03-19T12:22:32.005Z,21.65
2019-03-19T12:23:31.999Z,21.74
2019-03-19T12:24:32.839Z,21.74
2019-03-19T12:25:31.972Z,22.22
2019-03-19T12:26:31.980Z,22.11
2019-03-19T12:27:31.957Z,21.32
2019-03-19T12:28:39.546Z,21.63
2019-03-19T12:29:32.953Z,21.92
2019-03-19T12:30:31.919Z,21.62
2019-03-19T12:31:31.929Z,21.42
2019-03-19T12:32:31.923Z,22.03
2019-03-19T12:33:40.517Z,22.03
2019-03-19T12:34:32.881Z,21.52
2019-03-19T12:35:31.899Z,22.42
2019-03-19T12:36:31.878Z,21.42
2019-03-19T12:37:31.854Z,21.13
2019-03-19T12:38:31.853Z,22.03
2019-03-19T12:39:31.828Z,22.81
2019-03-19T12:40:36.761Z,22.22
2019-03-19T12:41:32.828Z,21.62
2019-03-19T12:42:31.803Z,21.62
2019-03-19T12:43:31.786Z,21.52
2019-03-19T12:44:31.781Z,21.43
2019-03-19T12:45:31.781Z,21.63
2019-03-19T12:46:31.774Z,21.64
2019-03-19T12:47:31.742Z,23.23
2019-03-19T12:48:31.737Z,22.22
2019-03-19T12:49:31.729Z,21.63
2019-03-19T12:50:31.724Z,21.83
2019-03-19T12:51:31.726Z,21.24
2019-03-19T12:52:31.692Z,22.75